Tiny Town, Kentucky
Current Conditions -  °F | °C
As of 12:52 AM on Monday 24 Nov 2014 (Local Time) from KCKV Reporting Station
Few Clouds Few Clouds  
Wind Chill: 61°   Ceiling: Unl
Heat Index: 61°   Visibility: 10mi
Dew Point: 57°   Wind: 17mph
Humidity: 87%   Direction: 200°SSW
Pressure: 29.4"   Gusts: NA
Location:  36.705°N, 87.1786°W
Report Text: KCKV 240652Z AUTO 20015KT 10SM FEW024 FEW070 16/14 A2940 RMK AO2 PK WND 21026/0617 SLP952 T01610139 $
Loading
Personal Weather Stations






























Interactive Weather Map New forecast layout! Learn more

10-Day Weather Forecast

Advertisements
Track Severe Weather on mobile